»·PEaware :: N256Z KSBA-KMMH

N256Z :: KSBA-KMMH

FLIGHT INFORMATION

Flight Status: Arrived
Operator: Privately registered:
United States
More flights under this callsign
Pilot: Gregory A. (9731)
Aircraft: PIPER PA-46-500TP MALIBU MERIDIAN
(P46T)
More flights by this aircraft type
Origin: KSBA Santa Barbara Mun
United States
Destination: KMMH Mammoth Yosemite
United States
More flights between these airports :: More routes between these airports
Route: FLOUT5 RZS DERBB J7 FRA
File this flight plan on PilotEdge
Remarks:
Altitude:
(Current/Filed)
270ft
Speed:
(Current/Filed)
262kts
Departed: 09-Apr-19 04:28 PM
Arrived: 09-Apr-19 05:41 PM
Distance/Time
Traveled:
198nm/1:13
Distance/Time
To Go:
Arrived

Flight Plot

Page will automatically refresh every two minutes.

Flight plan parsing failed; only flown route is shown


Map Options




Map Legend


Flown Route
Filed Route
Departure Airport
Arrival Airport
Navaid (VOR, NDB)
Fix

Horizontal Profiles

Position Reports

Time Latitude Longitude Heading Altitude Ground
Speed
09-Apr-19 15:58 34.429978 -119.843292 143 14ft 0kts
09-Apr-19 15:59 34.429978 -119.843292 143 14ft 0kts
09-Apr-19 16:00 34.429978 -119.843292 143 14ft 0kts
09-Apr-19 16:01 34.429978 -119.843292 143 14ft 0kts
09-Apr-19 16:02 34.429977 -119.843291 143 14ft 0kts
09-Apr-19 16:03 34.429974 -119.843289 143 14ft 0kts
09-Apr-19 16:04 34.429972 -119.843287 143 14ft 0kts
09-Apr-19 16:05 34.429970 -119.843285 143 14ft 0kts
09-Apr-19 16:06 34.429967 -119.843282 143 14ft 0kts
09-Apr-19 16:07 34.429965 -119.843280 143 14ft 0kts
09-Apr-19 16:08 34.429963 -119.843278 143 14ft 0kts
09-Apr-19 16:09 34.429961 -119.843276 143 14ft 0kts
09-Apr-19 16:10 34.429959 -119.843274 143 14ft 0kts
09-Apr-19 16:12 34.429956 -119.843273 143 14ft 0kts
09-Apr-19 16:13 34.429954 -119.843271 143 14ft 0kts
09-Apr-19 16:14 34.429952 -119.843269 143 14ft 0kts
09-Apr-19 16:15 34.429950 -119.843267 142 14ft 0kts
09-Apr-19 16:16 34.429947 -119.843264 142 14ft 0kts
09-Apr-19 16:17 34.429944 -119.843261 142 14ft 0kts
09-Apr-19 16:18 34.429941 -119.843258 142 14ft 0kts
09-Apr-19 16:19 34.429939 -119.843256 142 14ft 0kts
09-Apr-19 16:20 34.429936 -119.843254 142 14ft 0kts
09-Apr-19 16:21 34.429920 -119.843239 142 14ft 1kts
09-Apr-19 16:22 34.429921 -119.839303 171 14ft 20kts
09-Apr-19 16:23 34.429014 -119.836527 87 14ft 30kts
09-Apr-19 16:24 34.428579 -119.835201 170 14ft 0kts
09-Apr-19 16:25 34.428576 -119.835200 170 14ft 0kts
09-Apr-19 16:26 34.428573 -119.835200 170 14ft 0kts
09-Apr-19 16:27 34.427863 -119.835680 269 14ft 0kts
09-Apr-19 16:28 34.425889 -119.865618 255 197ft 136kts
09-Apr-19 16:29 34.389681 -119.872947 186 1605ft 148kts
09-Apr-19 16:30 34.348500 -119.892514 207 3213ft 185kts
09-Apr-19 16:31 34.301458 -119.923729 206 5000ft 177kts
09-Apr-19 16:32 34.259903 -119.949180 178 6971ft 162kts
09-Apr-19 16:33 34.261616 -119.913452 12 8296ft 184kts
09-Apr-19 16:34 34.312148 -119.904410 15 9705ft 181kts
09-Apr-19 16:35 34.360801 -119.877942 25 11728ft 201kts
09-Apr-19 16:36 34.409638 -119.843509 26 13726ft 206kts
09-Apr-19 16:36 34.451789 -119.813057 25 15398ft 216kts
09-Apr-19 16:38 34.514236 -119.773959 7 17735ft 212kts
09-Apr-19 16:39 34.571894 -119.761025 0 19734ft 211kts
09-Apr-19 16:39 34.620310 -119.752280 0 21395ft 209kts
09-Apr-19 16:41 34.679744 -119.741892 358 23500ft 200kts
09-Apr-19 16:41 34.725808 -119.733969 357 25160ft 200kts
09-Apr-19 16:42 34.780193 -119.724575 356 27133ft 196kts
09-Apr-19 16:44 34.854726 -119.712125 359 27349ft 256kts
09-Apr-19 16:44 34.914569 -119.701523 359 27392ft 266kts
09-Apr-19 16:45 34.988680 -119.688593 0 27334ft 270kts
09-Apr-19 16:46 35.062891 -119.675506 359 27337ft 269kts
09-Apr-19 16:47 35.117235 -119.666025 359 27347ft 269kts
09-Apr-19 16:48 35.191524 -119.652963 359 27358ft 270kts
09-Apr-19 16:49 35.264837 -119.643300 354 27363ft 267kts
09-Apr-19 16:50 35.339115 -119.640280 352 27376ft 266kts
09-Apr-19 16:51 35.405023 -119.638403 352 27378ft 266kts
09-Apr-19 16:52 35.479094 -119.636523 352 27372ft 266kts
09-Apr-19 16:53 35.553269 -119.634728 352 27373ft 267kts
09-Apr-19 16:54 35.627754 -119.632899 352 27374ft 267kts
09-Apr-19 16:55 35.702110 -119.631094 352 27377ft 268kts
09-Apr-19 16:56 35.776556 -119.629329 352 27386ft 268kts
09-Apr-19 16:57 35.851256 -119.627488 352 27391ft 268kts
09-Apr-19 16:58 35.925595 -119.625654 352 27395ft 266kts
09-Apr-19 16:59 35.999041 -119.623890 352 27400ft 263kts
09-Apr-19 17:00 36.072381 -119.622076 352 27405ft 263kts
09-Apr-19 17:01 36.145410 -119.620283 351 27410ft 262kts
09-Apr-19 17:02 36.218306 -119.618488 351 27412ft 262kts
09-Apr-19 17:03 36.291156 -119.616743 351 27414ft 262kts
09-Apr-19 17:04 36.364611 -119.614920 352 27414ft 263kts
09-Apr-19 17:05 36.437650 -119.613080 352 27412ft 262kts
09-Apr-19 17:06 36.510545 -119.611269 352 27409ft 262kts
09-Apr-19 17:07 36.583614 -119.609536 352 27409ft 261kts
09-Apr-19 17:08 36.656331 -119.607675 352 27408ft 261kts
09-Apr-19 17:09 36.728222 -119.596057 28 27410ft 280kts
09-Apr-19 17:10 36.783331 -119.525361 55 27404ft 289kts
09-Apr-19 17:11 36.822481 -119.437932 52 27411ft 288kts
09-Apr-19 17:12 36.868185 -119.356008 52 27410ft 287kts
09-Apr-19 17:13 36.912809 -119.272908 53 27412ft 287kts
09-Apr-19 17:14 36.957674 -119.187349 54 26615ft 301kts
09-Apr-19 17:15 37.002213 -119.101365 54 25416ft 288kts
09-Apr-19 17:16 37.045010 -119.018345 54 24212ft 275kts
09-Apr-19 17:17 37.084898 -118.940777 55 23010ft 259kts
09-Apr-19 17:18 37.123380 -118.865702 55 21812ft 254kts
09-Apr-19 17:19 37.160625 -118.793094 55 20307ft 239kts
09-Apr-19 17:20 37.197443 -118.720988 55 18714ft 250kts
09-Apr-19 17:21 37.232227 -118.652779 56 17360ft 205kts
09-Apr-19 17:22 37.262036 -118.593788 55 16828ft 201kts
09-Apr-19 17:23 37.292276 -118.534421 55 16300ft 198kts
09-Apr-19 17:24 37.320946 -118.477776 55 15787ft 193kts
09-Apr-19 17:25 37.349492 -118.421361 55 15275ft 184kts
09-Apr-19 17:26 37.376113 -118.370531 33 15271ft 163kts
09-Apr-19 17:27 37.416016 -118.385625 328 14445ft 164kts
09-Apr-19 17:28 37.458596 -118.410025 332 13453ft 171kts
09-Apr-19 17:29 37.502757 -118.433703 332 12456ft 174kts
09-Apr-19 17:30 37.547762 -118.457702 333 11485ft 175kts
09-Apr-19 17:31 37.589059 -118.479614 333 11278ft 145kts
09-Apr-19 17:32 37.626550 -118.499597 333 11157ft 151kts
09-Apr-19 17:33 37.632118 -118.544837 255 10183ft 152kts
09-Apr-19 17:34 37.624753 -118.597744 259 9410ft 147kts
09-Apr-19 17:35 37.619071 -118.646610 259 9396ft 140kts
09-Apr-19 17:36 37.614108 -118.697459 267 9057ft 157kts
09-Apr-19 17:37 37.614318 -118.745475 254 8584ft 111kts
09-Apr-19 17:38 37.611501 -118.788331 261 7918ft 132kts
09-Apr-19 17:39 37.621011 -118.827610 288 7149ft 118kts
09-Apr-19 17:40 37.625630 -118.842164 20 7132ft 16kts

Navigation Log

Ident Type
Flight plan parsing failed, navigation log unavailable